Time;durP1;ratioP1;P1;durP2;ratioP2;P2;SDS_P1;SDS_P2;PMS_P1;PMS_P2;Temp;Humidity;BMP_temperature;BMP_pressure;BME280_temperature;BME280_humidity;BME280_pressure;Samples;Min_cycle;Max_cycle;Signal;HPM_P1;HPM_P2
2022/03/24 00:01:38;;;;;;;28.60;27.40;;;20.50;44.00;;;;;;5053548;28;20484;-65
2022/03/24 00:04:08;;;;;;;30.53;29.23;;;20.40;44.10;;;;;;5053400;28;20487;-65
2022/03/24 00:06:35;;;;;;;27.57;26.47;;;20.30;44.20;;;;;;5053483;28;20467;-65
2022/03/24 00:09:02;;;;;;;28.13;27.03;;;20.30;44.40;;;;;;5052078;28;20448;-65
2022/03/24 00:11:30;;;;;;;30.07;28.80;;;20.30;44.50;;;;;;5033308;28;20465;-65
2022/03/24 00:13:57;;;;;;;30.60;29.30;;;20.30;44.50;;;;;;5033019;28;20844;-65
2022/03/24 00:16:24;;;;;;;29.53;28.33;;;20.10;44.50;;;;;;5033427;28;20445;-64
2022/03/24 00:18:51;;;;;;;29.80;28.60;;;20.10;44.80;;;;;;5033088;28;20539;-64
2022/03/24 00:21:18;;;;;;;30.90;29.50;;;20.10;44.80;;;;;;5033150;28;20481;-65
2022/03/24 00:23:45;;;;;;;30.10;28.80;;;20.10;45.00;;;;;;5033177;28;20485;-65
2022/03/24 00:26:12;;;;;;;29.47;28.07;;;20.00;45.00;;;;;;5033317;28;20449;-65
2022/03/24 00:28:40;;;;;;;28.37;27.20;;;19.90;45.10;;;;;;5032841;28;20448;-65
2022/03/24 00:31:07;;;;;;;29.13;27.93;;;19.90;45.20;;;;;;5032764;28;20966;-65
2022/03/24 00:33:33;;;;;;;30.07;28.83;;;19.90;45.30;;;;;;5033014;28;20449;-64
2022/03/24 00:36:01;;;;;;;29.90;28.60;;;19.90;45.30;;;;;;5033057;28;20822;-65
2022/03/24 00:38:28;;;;;;;29.53;28.33;;;19.90;45.40;;;;;;5032802;28;20452;-65
2022/03/24 00:40:55;;;;;;;31.20;29.90;;;19.90;45.40;;;;;;5032630;28;21005;-65
2022/03/24 00:43:23;;;;;;;30.40;29.10;;;19.90;45.30;;;;;;5032874;28;20480;-65
2022/03/24 00:45:52;;;;;;;29.90;28.60;;;19.90;45.40;;;;;;5032800;28;20503;-65
2022/03/24 00:48:19;;;;;;;32.10;30.80;;;19.90;45.50;;;;;;5032282;28;20476;-65
2022/03/24 00:50:45;;;;;;;29.57;28.30;;;19.90;45.50;;;;;;5032739;28;20476;-65
2022/03/24 00:53:12;;;;;;;29.50;28.30;;;19.90;45.50;;;;;;5032564;28;20457;-65
2022/03/24 00:55:40;;;;;;;31.37;29.97;;;19.90;45.40;;;;;;5032751;28;20856;-65
2022/03/24 00:58:07;;;;;;;29.20;27.80;;;19.90;45.40;;;;;;5032208;28;20445;-65
2022/03/24 01:00:36;;;;;;;29.83;28.50;;;19.90;45.50;;;;;;5032560;28;20460;-65
2022/03/24 01:03:06;;;;;;;28.80;27.40;;;19.80;45.50;;;;;;5032214;28;20481;-64
2022/03/24 01:05:37;;;;;;;28.80;27.60;;;19.80;45.60;;;;;;5032559;28;20544;-65
2022/03/24 01:08:05;;;;;;;29.10;27.80;;;19.80;45.60;;;;;;5032015;28;20449;-65
2022/03/24 01:10:32;;;;;;;30.30;29.00;;;19.70;45.60;;;;;;5032357;28;20448;-65
2022/03/24 01:13:00;;;;;;;28.97;27.77;;;19.70;45.70;;;;;;5032328;28;20461;-63
2022/03/24 01:15:28;;;;;;;29.17;27.87;;;19.80;45.70;;;;;;5032256;28;20930;-65
2022/03/24 01:17:55;;;;;;;30.10;28.90;;;19.80;45.60;;;;;;5031866;28;20441;-65
2022/03/24 01:20:23;;;;;;;28.90;27.70;;;19.80;45.70;;;;;;5032157;28;20543;-65
2022/03/24 01:22:50;;;;;;;30.80;29.50;;;19.70;45.70;;;;;;5031968;28;20512;-65
2022/03/24 01:25:17;;;;;;;28.50;27.30;;;19.70;45.80;;;;;;5031307;28;20445;-65
2022/03/24 01:27:44;;;;;;;30.10;28.90;;;19.70;45.90;;;;;;5031701;28;20499;-65
2022/03/24 01:30:12;;;;;;;31.63;30.23;;;19.60;45.90;;;;;;5032044;28;20445;-65
2022/03/24 01:32:39;;;;;;;29.50;28.30;;;19.60;46.00;;;;;;5031868;28;20468;-65
2022/03/24 01:35:07;;;;;;;30.90;29.70;;;19.60;46.10;;;;;;5032039;28;20444;-65
2022/03/24 01:37:36;;;;;;;29.77;28.57;;;19.50;46.10;;;;;;5031464;28;20813;-65
2022/03/24 01:40:05;;;;;;;29.13;28.03;;;19.50;46.30;;;;;;5031942;28;20448;-64
2022/03/24 01:42:35;;;;;;;29.20;27.90;;;19.50;46.20;;;;;;5031743;28;20461;-65
2022/03/24 01:45:02;;;;;;;28.83;27.63;;;19.50;46.30;;;;;;5031841;28;20448;-65
2022/03/24 01:47:29;;;;;;;28.43;27.23;;;19.50;46.40;;;;;;5031406;28;20815;-65
2022/03/24 01:49:58;;;;;;;29.90;28.70;;;19.40;46.40;;;;;;5031746;28;20810;-65
2022/03/24 01:52:26;;;;;;;29.03;27.83;;;19.50;46.50;;;;;;5031544;28;20469;-64
2022/03/24 01:54:57;;;;;;;30.77;29.47;;;19.50;46.40;;;;;;5031440;28;20475;-65
2022/03/24 01:57:26;;;;;;;30.53;29.13;;;19.50;46.30;;;;;;5031612;28;20491;-64
2022/03/24 01:59:53;;;;;;;31.53;30.23;;;19.50;46.40;;;;;;5031495;28;20456;-65
2022/03/24 02:02:20;;;;;;;31.77;30.57;;;19.40;46.50;;;;;;5070917;22;20495;-58
2022/03/24 02:04:48;;;;;;;30.87;29.60;;;19.40;46.80;;;;;;5066809;28;21603;-59
2022/03/24 02:07:14;;;;;;;30.03;28.67;;;19.50;46.90;;;;;;5051587;28;20913;-59
2022/03/24 02:09:41;;;;;;;29.50;28.40;;;19.40;46.80;;;;;;5051496;28;20979;-61
2022/03/24 02:12:12;;;;;;;29.27;27.87;;;19.50;46.80;;;;;;5051495;28;20464;-60
2022/03/24 02:14:40;;;;;;;29.33;28.13;;;19.50;46.80;;;;;;5054876;28;20439;-56
2022/03/24 02:17:06;;;;;;;31.00;29.60;;;19.40;46.80;;;;;;5071446;28;20443;-59
2022/03/24 02:19:36;;;;;;;31.00;29.60;;;19.50;46.80;;;;;;5071680;28;20452;-60
2022/03/24 02:22:10;;;;;;;30.60;29.30;;;19.50;46.70;;;;;;5071342;28;20471;-60
2022/03/24 02:24:37;;;;;;;29.77;28.57;;;19.50;46.60;;;;;;5071064;28;20533;-60
2022/03/24 02:27:04;;;;;;;29.93;28.63;;;19.60;46.50;;;;;;5071341;28;20932;-60
2022/03/24 02:29:31;;;;;;;30.03;28.70;;;19.50;46.40;;;;;;5070931;28;20448;-60
2022/03/24 02:31:58;;;;;;;30.10;28.77;;;19.50;46.40;;;;;;5071240;28;20463;-59
2022/03/24 02:34:48;;;;;;;29.93;28.70;;;19.50;46.50;;;;;;5071153;28;20452;-59
2022/03/24 02:37:18;;;;;;;29.13;27.93;;;19.40;46.50;;;;;;5074965;28;20447;-63
2022/03/24 02:39:46;;;;;;;29.83;28.53;;;19.30;46.70;;;;;;5075192;28;20777;-59
2022/03/24 02:42:15;;;;;;;30.07;28.77;;;19.30;46.80;;;;;;5074895;28;20497;-58
2022/03/24 02:44:44;;;;;;;29.27;28.00;;;19.20;46.90;;;;;;5075137;28;20479;-60
2022/03/24 02:47:11;;;;;;;29.63;28.27;;;19.20;47.00;;;;;;5075090;28;20444;-59
2022/03/24 02:49:39;;;;;;;29.67;28.47;;;19.20;47.10;;;;;;5075009;28;20863;-59
2022/03/24 02:52:07;;;;;;;31.37;29.97;;;19.20;47.20;;;;;;5074643;28;20477;-60
2022/03/24 02:54:36;;;;;;;28.70;27.60;;;19.10;47.10;;;;;;5074683;28;20447;-59
2022/03/24 02:57:04;;;;;;;30.17;28.87;;;19.10;47.30;;;;;;5074905;28;20446;-60
2022/03/24 02:59:31;;;;;;;29.43;28.03;;;19.10;47.30;;;;;;5074553;28;20448;-61
2022/03/24 03:02:00;;;;;;;29.67;28.33;;;19.10;47.40;;;;;;5074385;28;20483;-61
2022/03/24 03:04:28;;;;;;;30.80;29.50;;;19.10;47.40;;;;;;5074702;28;20482;-62
2022/03/24 03:06:55;;;;;;;30.43;29.13;;;19.10;47.50;;;;;;5074733;28;20443;-56
2022/03/24 03:09:23;;;;;;;29.53;28.33;;;19.00;47.60;;;;;;5074462;28;20447;-58
2022/03/24 03:11:52;;;;;;;30.90;29.60;;;19.00;47.60;;;;;;5074336;28;20471;-58
2022/03/24 03:14:20;;;;;;;31.20;29.80;;;19.00;47.60;;;;;;5074540;28;20524;-61
2022/03/24 03:16:47;;;;;;;30.77;29.47;;;19.10;47.60;;;;;;5074566;28;20450;-58
2022/03/24 03:19:15;;;;;;;30.53;29.23;;;19.10;47.50;;;;;;5074270;28;20435;-61
2022/03/24 03:21:42;;;;;;;32.60;31.20;;;19.10;47.50;;;;;;5074294;28;20486;-59
2022/03/24 03:24:11;;;;;;;30.60;29.30;;;19.10;47.60;;;;;;5074328;28;20478;-59
2022/03/24 03:26:38;;;;;;;29.70;28.30;;;19.10;47.60;;;;;;5074405;28;20470;-57
2022/03/24 03:29:08;;;;;;;30.37;29.07;;;19.00;47.60;;;;;;5074008;28;20480;-59
2022/03/24 03:31:35;;;;;;;29.63;28.00;;;19.00;47.60;;;;;;5074009;28;20543;-59
2022/03/24 03:34:02;;;;;;;30.30;29.10;;;19.00;47.70;;;;;;5074245;28;20439;-59
2022/03/24 03:36:30;;;;;;;31.27;29.93;;;19.00;47.70;;;;;;5074221;28;20508;-59
2022/03/24 03:38:58;;;;;;;32.20;30.80;;;19.00;47.80;;;;;;5073956;28;20525;-57
2022/03/24 03:41:26;;;;;;;30.23;28.90;;;18.90;48.30;;;;;;5073802;28;20451;-60
2022/03/24 03:43:53;;;;;;;28.90;27.60;;;18.90;47.80;;;;;;5073921;28;20486;-59
2022/03/24 03:46:21;;;;;;;30.30;29.10;;;18.90;47.90;;;;;;5074024;28;20448;-61
2022/03/24 03:48:48;;;;;;;31.20;29.80;;;18.90;47.80;;;;;;5072888;28;20937;-60
2022/03/24 03:51:15;;;;;;;30.10;28.80;;;18.90;47.80;;;;;;5073858;28;20829;-63
2022/03/24 03:53:42;;;;;;;30.80;29.50;;;18.90;48.00;;;;;;5073935;28;20847;-59
2022/03/24 03:56:12;;;;;;;30.37;29.07;;;18.90;48.00;;;;;;5073775;28;20439;-58
2022/03/24 03:58:40;;;;;;;31.50;30.10;;;18.90;47.90;;;;;;5073571;28;20451;-61
2022/03/24 04:01:08;;;;;;;30.43;29.03;;;19.00;47.80;;;;;;5073603;28;20459;-59
2022/03/24 04:03:38;;;;;;;31.43;30.03;;;19.00;47.60;;;;;;5073506;28;20523;-60
2022/03/24 04:06:07;;;;;;;32.10;30.70;;;19.00;47.60;;;;;;5073634;28;20451;-59
2022/03/24 04:08:35;;;;;;;33.10;31.50;;;19.10;47.60;;;;;;5073213;28;20447;-59
2022/03/24 04:11:02;;;;;;;30.97;29.67;;;19.00;47.50;;;;;;5073528;28;20529;-60
2022/03/24 04:13:29;;;;;;;32.00;30.60;;;19.00;47.60;;;;;;5073458;28;20478;-61
2022/03/24 04:15:56;;;;;;;31.03;29.73;;;19.00;47.60;;;;;;5073651;28;20445;-57
2022/03/24 04:18:23;;;;;;;31.70;30.30;;;19.00;47.60;;;;;;5073002;28;20505;-62
2022/03/24 04:20:51;;;;;;;32.10;30.73;;;19.10;47.60;;;;;;5073337;28;20490;-58
2022/03/24 04:23:19;;;;;;;31.20;29.90;;;19.10;47.50;;;;;;5073242;28;21010;-59
2022/03/24 04:25:46;;;;;;;30.83;29.43;;;19.00;47.50;;;;;;5073116;28;20490;-58
2022/03/24 04:28:14;;;;;;;31.93;30.53;;;19.00;47.50;;;;;;5072709;28;20470;-60
2022/03/24 04:30:40;;;;;;;31.60;30.20;;;18.90;47.50;;;;;;5073281;28;20952;-58
2022/03/24 04:33:07;;;;;;;30.70;29.40;;;19.00;47.50;;;;;;5072984;28;20808;-62
2022/03/24 04:35:34;;;;;;;30.77;29.47;;;18.90;47.40;;;;;;5073138;28;20824;-60
2022/03/24 04:38:04;;;;;;;31.80;30.40;;;18.90;47.80;;;;;;5072610;28;21022;-60
2022/03/24 04:40:30;;;;;;;30.77;29.47;;;18.80;47.90;;;;;;5072706;28;20520;-60
2022/03/24 04:42:57;;;;;;;31.60;30.20;;;18.80;48.10;;;;;;5072741;28;20466;-61
2022/03/24 04:45:26;;;;;;;32.33;30.83;;;18.80;48.10;;;;;;5072670;28;20485;-60
2022/03/24 04:47:54;;;;;;;31.57;30.10;;;18.80;48.20;;;;;;5072598;28;20455;-61
2022/03/24 04:50:22;;;;;;;31.00;29.70;;;18.70;48.20;;;;;;5072600;28;20508;-63
2022/03/24 04:52:49;;;;;;;30.80;29.40;;;18.70;48.30;;;;;;5072638;28;20468;-61
2022/03/24 04:55:18;;;;;;;30.30;29.00;;;18.60;48.30;;;;;;5072725;28;20467;-62
2022/03/24 04:57:45;;;;;;;31.13;29.83;;;18.60;48.60;;;;;;5072461;28;20454;-61
2022/03/24 05:00:15;;;;;;;33.30;31.80;;;18.60;48.70;;;;;;5072145;28;20440;-59
2022/03/24 05:02:42;;;;;;;35.43;33.93;;;18.60;48.70;;;;;;5072386;28;20563;-59
2022/03/24 05:05:09;;;;;;;31.90;30.50;;;18.60;48.60;;;;;;5072294;28;20486;-59
2022/03/24 05:07:36;;;;;;;30.97;29.57;;;18.50;48.60;;;;;;5072256;28;20447;-60
2022/03/24 05:10:04;;;;;;;33.07;31.67;;;18.50;48.60;;;;;;5072071;28;20444;-59
2022/03/24 05:12:32;;;;;;;31.17;29.67;;;18.50;48.80;;;;;;5072202;28;20474;-61
2022/03/24 05:14:59;;;;;;;33.33;31.73;;;18.60;48.80;;;;;;5072310;28;20443;-60
2022/03/24 05:17:26;;;;;;;33.70;32.20;;;18.60;48.90;;;;;;5071753;28;20452;-61
2022/03/24 05:19:52;;;;;;;32.13;30.83;;;18.60;48.90;;;;;;5071850;28;20444;-59
2022/03/24 05:22:20;;;;;;;32.57;31.17;;;18.50;49.00;;;;;;5072061;28;20464;-60
2022/03/24 05:24:46;;;;;;;32.37;30.87;;;18.60;49.10;;;;;;5072069;28;20479;-60
2022/03/24 05:27:13;;;;;;;32.53;31.13;;;18.50;49.10;;;;;;5071611;28;20813;-61
2022/03/24 05:29:41;;;;;;;32.73;31.23;;;18.50;49.10;;;;;;5072092;28;20478;-61
2022/03/24 05:32:09;;;;;;;33.63;32.13;;;18.60;49.00;;;;;;5071972;28;20463;-59
2022/03/24 05:34:36;;;;;;;31.57;30.07;;;18.60;49.70;;;;;;5071931;28;20446;-59
2022/03/24 05:37:03;;;;;;;34.33;32.57;;;18.60;49.80;;;;;;5071014;28;20452;-62
2022/03/24 05:39:29;;;;;;;34.73;32.70;;;18.50;51.00;;;;;;5071247;28;20812;-58
2022/03/24 05:41:57;;;;;;;35.10;32.83;;;18.50;51.50;;;;;;5071622;28;20988;-58
2022/03/24 05:44:24;;;;;;;32.20;30.70;;;18.50;51.60;;;;;;5071748;28;20529;-57
2022/03/24 05:46:52;;;;;;;34.03;32.43;;;18.50;51.50;;;;;;5071953;28;20440;-62
2022/03/24 05:49:21;;;;;;;34.87;32.97;;;18.50;51.40;;;;;;5071546;28;20452;-62
2022/03/24 05:51:48;;;;;;;34.77;32.73;;;18.50;51.10;;;;;;5071824;28;20863;-62
2022/03/24 05:54:17;;;;;;;34.67;32.93;;;18.50;50.90;;;;;;5071633;28;20471;-62
2022/03/24 05:56:45;;;;;;;33.67;31.73;;;18.50;50.70;;;;;;5071645;28;20502;-62
2022/03/24 05:59:12;;;;;;;33.07;31.47;;;18.60;50.50;;;;;;5071414;28;20447;-58
2022/03/24 06:01:40;;;;;;;35.70;34.00;;;18.50;50.20;;;;;;5071501;28;20451;-56
2022/03/24 06:04:13;;;;;;;34.03;32.40;;;18.60;50.20;;;;;;5071545;28;20451;-59
2022/03/24 06:06:40;;;;;;;34.33;32.70;;;18.60;50.00;;;;;;5071841;28;20868;-59
2022/03/24 06:09:07;;;;;;;33.20;31.60;;;18.60;49.80;;;;;;5071340;28;20455;-59
2022/03/24 06:11:36;;;;;;;35.63;33.50;;;18.60;49.70;;;;;;5071103;28;20446;-61
2022/03/24 06:14:02;;;;;;;34.13;32.47;;;18.70;49.50;;;;;;5071478;28;20456;-62
2022/03/24 06:16:29;;;;;;;34.83;33.23;;;18.70;49.20;;;;;;5071530;28;20454;-62
2022/03/24 06:18:56;;;;;;;34.47;32.87;;;18.70;49.10;;;;;;5071379;28;20446;-61
2022/03/24 06:21:24;;;;;;;34.50;32.83;;;18.60;49.00;;;;;;5071185;28;20972;-58
2022/03/24 06:23:51;;;;;;;34.30;32.77;;;18.70;49.00;;;;;;5071451;28;20471;-58
2022/03/24 06:26:20;;;;;;;34.37;32.47;;;18.70;48.90;;;;;;5071291;28;20536;-62
2022/03/24 06:28:47;;;;;;;34.47;32.87;;;18.70;48.80;;;;;;5071301;28;20847;-58
2022/03/24 06:31:15;;;;;;;34.57;33.00;;;18.70;48.70;;;;;;5071134;28;20451;-58
2022/03/24 06:33:41;;;;;;;35.30;33.60;;;18.60;48.60;;;;;;5071456;28;20460;-62
2022/03/24 06:36:09;;;;;;;33.07;31.43;;;18.60;48.60;;;;;;5071252;28;20944;-61
2022/03/24 06:38:37;;;;;;;35.03;33.43;;;18.60;48.60;;;;;;5070955;28;20459;-58
2022/03/24 06:41:06;;;;;;;32.27;30.93;;;18.60;48.50;;;;;;5071173;28;20851;-62
2022/03/24 06:43:34;;;;;;;35.00;33.30;;;18.60;48.50;;;;;;5071146;28;20550;-56
2022/03/24 06:46:00;;;;;;;35.90;34.30;;;18.60;48.40;;;;;;5071154;28;20886;-62
2022/03/24 06:48:28;;;;;;;34.70;33.10;;;18.60;48.40;;;;;;5070876;28;20443;-58
2022/03/24 06:50:54;;;;;;;33.60;32.20;;;18.60;48.40;;;;;;5071144;28;20450;-61
2022/03/24 06:53:21;;;;;;;36.23;34.47;;;18.60;48.30;;;;;;5071026;28;20467;-58
2022/03/24 06:55:49;;;;;;;34.73;33.23;;;18.50;48.20;;;;;;5071075;28;20443;-55
2022/03/24 06:58:16;;;;;;;34.33;32.93;;;18.50;48.30;;;;;;5070741;28;20443;-60
2022/03/24 07:00:43;;;;;;;33.83;32.53;;;18.50;48.30;;;;;;5070968;28;20454;-61
2022/03/24 07:03:10;;;;;;;37.27;35.63;;;18.50;48.30;;;;;;5070780;28;20481;-58
2022/03/24 07:05:37;;;;;;;35.70;34.00;;;18.50;48.20;;;;;;5070794;28;20506;-60
2022/03/24 07:08:04;;;;;;;35.07;33.37;;;18.60;48.20;;;;;;5070581;28;20443;-60
2022/03/24 07:10:31;;;;;;;34.87;33.27;;;18.60;48.10;;;;;;5071096;28;20455;-61
2022/03/24 07:12:59;;;;;;;36.17;34.33;;;18.60;48.00;;;;;;5070895;28;20521;-61
2022/03/24 07:15:26;;;;;;;35.73;34.23;;;18.50;47.90;;;;;;5070949;28;20446;-60
2022/03/24 07:17:53;;;;;;;35.83;34.17;;;18.50;47.90;;;;;;5070794;28;20538;-57
2022/03/24 07:20:21;;;;;;;32.13;30.73;;;18.60;48.00;;;;;;5070750;28;20466;-60
2022/03/24 07:22:48;;;;;;;34.47;32.97;;;18.60;47.90;;;;;;5071938;28;20582;-59
2022/03/24 07:25:15;;;;;;;34.43;32.93;;;18.60;47.80;;;;;;5074300;28;20475;-59
2022/03/24 07:27:42;;;;;;;31.90;30.40;;;18.60;47.70;;;;;;5074170;28;20513;-58
2022/03/24 07:30:12;;;;;;;33.50;32.00;;;18.70;47.80;;;;;;5074340;28;20749;-59
2022/03/24 07:32:40;;;;;;;32.30;30.87;;;18.60;47.60;;;;;;5074160;28;20471;-56
2022/03/24 07:35:08;;;;;;;32.67;31.17;;;18.60;47.60;;;;;;5074246;28;20447;-59
2022/03/24 07:37:35;;;;;;;32.90;31.50;;;18.70;47.60;;;;;;5074070;28;20497;-58
2022/03/24 07:40:03;;;;;;;35.37;33.93;;;18.60;47.50;;;;;;5074120;28;20450;-60
2022/03/24 07:42:30;;;;;;;33.70;32.20;;;18.70;47.50;;;;;;5073952;28;20566;-55
2022/03/24 07:44:56;;;;;;;30.67;29.37;;;18.70;47.50;;;;;;5073973;28;20490;-58
2022/03/24 07:47:26;;;;;;;31.57;30.20;;;18.60;47.30;;;;;;5073804;28;20860;-57
2022/03/24 07:49:52;;;;;;;33.53;32.23;;;18.70;47.40;;;;;;5073932;28;20447;-57
2022/03/24 07:52:20;;;;;;;30.57;29.17;;;18.80;47.20;;;;;;5073813;28;20471;-56
2022/03/24 07:54:58;;;;;;;32.23;30.83;;;18.90;47.00;;;;;;5073767;28;20538;-59
2022/03/24 07:57:27;;;;;;;31.47;30.17;;;18.90;46.90;;;;;;5073630;28;20443;-60
2022/03/24 07:59:54;;;;;;;30.73;29.43;;;18.90;46.80;;;;;;5073720;28;20443;-59
2022/03/24 08:02:21;;;;;;;31.10;29.60;;;18.90;46.80;;;;;;5074060;28;21011;-60
2022/03/24 08:04:49;;;;;;;32.57;31.17;;;18.90;46.80;;;;;;5073672;28;20455;-59
2022/03/24 08:07:16;;;;;;;31.73;30.43;;;18.90;46.70;;;;;;5073495;28;20534;-59
2022/03/24 08:09:43;;;;;;;31.90;30.50;;;18.90;46.70;;;;;;5073474;28;20455;-56
2022/03/24 08:12:10;;;;;;;32.13;30.57;;;19.00;46.70;;;;;;5073505;28;21002;-59
2022/03/24 08:14:38;;;;;;;33.30;31.80;;;19.00;46.50;;;;;;5073526;28;20956;-57
2022/03/24 08:17:05;;;;;;;31.40;30.10;;;19.00;46.40;;;;;;5073399;28;20458;-55
2022/03/24 08:19:31;;;;;;;32.27;30.87;;;19.10;46.40;;;;;;5073273;28;20450;-58
2022/03/24 08:22:00;;;;;;;30.20;28.80;;;19.10;46.20;;;;;;5073219;28;20459;-60
2022/03/24 08:24:26;;;;;;;31.77;30.27;;;19.20;46.20;;;;;;5073259;28;20446;-57
2022/03/24 08:26:53;;;;;;;31.93;30.53;;;19.20;46.10;;;;;;5073104;28;20483;-60
2022/03/24 08:29:20;;;;;;;31.10;29.70;;;19.20;46.00;;;;;;5073102;28;20441;-58
2022/03/24 08:31:47;;;;;;;30.63;29.33;;;19.20;46.00;;;;;;5073104;28;20964;-60
2022/03/24 08:34:15;;;;;;;33.53;32.03;;;19.20;45.90;;;;;;5072680;28;20452;-58
2022/03/24 08:36:42;;;;;;;31.40;30.10;;;19.30;45.90;;;;;;5073030;28;20909;-58
2022/03/24 08:39:10;;;;;;;31.80;30.30;;;19.20;45.70;;;;;;5072729;28;20446;-57
2022/03/24 08:41:37;;;;;;;31.63;30.13;;;19.30;45.70;;;;;;5072818;28;20822;-58
2022/03/24 08:44:04;;;;;;;33.50;32.00;;;19.30;45.60;;;;;;5072840;28;20447;-58
2022/03/24 08:46:31;;;;;;;32.60;31.20;;;19.30;45.50;;;;;;5072844;28;20479;-57
2022/03/24 08:48:58;;;;;;;31.10;29.80;;;19.30;45.50;;;;;;5072452;28;20474;-58
2022/03/24 08:51:27;;;;;;;31.20;29.90;;;19.40;46.00;;;;;;5072524;28;20534;-57
2022/03/24 08:53:53;;;;;;;31.10;29.80;;;19.40;45.30;;;;;;5072737;28;20443;-61
2022/03/24 08:56:22;;;;;;;32.20;30.80;;;19.40;45.80;;;;;;5072390;28;20819;-61
2022/03/24 08:58:50;;;;;;;33.00;31.50;;;19.50;45.20;;;;;;5072220;28;20813;-58
2022/03/24 09:01:16;;;;;;;31.30;30.00;;;19.50;45.10;;;;;;5072508;28;20447;-58
2022/03/24 09:03:43;;;;;;;33.63;31.93;;;19.50;45.10;;;;;;5072367;28;20490;-59
2022/03/24 09:06:10;;;;;;;31.10;29.80;;;19.50;45.00;;;;;;5072365;28;20658;-58
2022/03/24 09:08:37;;;;;;;32.00;30.80;;;19.50;44.90;;;;;;5072198;28;20447;-57
2022/03/24 09:11:03;;;;;;;32.07;30.57;;;19.60;44.80;;;;;;5072322;28;20451;-56
2022/03/24 09:13:31;;;;;;;31.07;29.67;;;19.60;44.80;;;;;;5072065;28;20468;-60
2022/03/24 09:15:58;;;;;;;30.13;28.90;;;19.60;44.70;;;;;;5072350;28;20439;-60
2022/03/24 09:18:25;;;;;;;30.70;29.30;;;19.60;44.60;;;;;;5072040;28;20446;-58
2022/03/24 09:20:52;;;;;;;30.87;29.40;;;19.60;44.60;;;;;;5072146;28;20990;-58
2022/03/24 09:23:19;;;;;;;30.93;29.57;;;19.70;44.60;;;;;;5072120;28;20465;-61
2022/03/24 09:25:45;;;;;;;32.23;30.83;;;19.70;44.50;;;;;;5071990;28;20479;-57
2022/03/24 09:28:12;;;;;;;32.83;31.03;;;19.70;44.40;;;;;;5071879;28;20444;-58
2022/03/24 09:30:42;;;;;;;30.37;29.07;;;19.70;44.40;;;;;;5072008;28;20447;-60
2022/03/24 09:33:09;;;;;;;30.43;29.03;;;19.70;44.30;;;;;;5071895;28;20479;-58
2022/03/24 09:35:36;;;;;;;30.93;29.63;;;19.70;44.30;;;;;;5071839;28;20439;-58
2022/03/24 09:38:03;;;;;;;32.10;30.70;;;19.70;44.20;;;;;;5071745;28;20451;-58
2022/03/24 09:40:30;;;;;;;32.63;31.13;;;19.80;44.20;;;;;;5071934;28;20443;-58
2022/03/24 09:43:00;;;;;;;31.83;30.53;;;19.80;44.10;;;;;;5072098;28;20463;-56
2022/03/24 09:45:27;;;;;;;32.20;30.90;;;19.80;44.00;;;;;;5071026;28;20476;-55
2022/03/24 09:47:56;;;;;;;31.60;30.30;;;19.80;44.00;;;;;;5071623;28;20475;-55
2022/03/24 09:50:24;;;;;;;31.80;30.47;;;19.90;44.00;;;;;;5071727;28;20451;-60
2022/03/24 09:52:52;;;;;;;31.80;30.40;;;19.90;43.90;;;;;;5071638;28;20981;-59
2022/03/24 09:55:20;;;;;;;31.83;30.53;;;19.90;43.80;;;;;;5071756;28;20447;-57
2022/03/24 09:57:48;;;;;;;32.80;31.50;;;19.90;43.80;;;;;;5071606;28;20450;-57
2022/03/24 10:00:17;;;;;;;33.77;32.17;;;19.90;43.70;;;;;;5071616;28;20447;-58
2022/03/24 10:02:44;;;;;;;31.77;30.47;;;19.90;43.70;;;;;;5071380;28;20482;-60
2022/03/24 10:05:19;;;;;;;31.00;29.73;;;20.00;43.70;;;;;;5071540;28;20830;-57
2022/03/24 10:07:46;;;;;;;33.80;32.20;;;20.00;43.60;;;;;;5071517;28;20936;-58
2022/03/24 10:10:24;;;;;;;32.00;30.70;;;20.00;43.50;;;;;;5071772;28;20443;-58
2022/03/24 10:12:50;;;;;;;31.93;30.63;;;20.10;43.50;;;;;;5071604;28;20874;-58
2022/03/24 10:15:17;;;;;;;30.37;29.07;;;20.10;43.40;;;;;;5071464;28;20820;-60
2022/03/24 10:17:51;;;;;;;29.43;28.23;;;20.20;43.40;;;;;;5071295;28;20485;-58
2022/03/24 10:20:19;;;;;;;29.23;28.03;;;20.20;43.80;;;;;;5071411;28;20466;-59
2022/03/24 10:22:54;;;;;;;30.60;29.30;;;20.30;43.30;;;;;;5071261;28;20558;-59
2022/03/24 10:25:22;;;;;;;29.40;28.10;;;20.30;43.20;;;;;;5071514;28;20442;-57
2022/03/24 10:27:51;;;;;;;31.00;29.70;;;20.40;43.20;;;;;;5071282;28;20451;-58
2022/03/24 10:30:18;;;;;;;31.90;30.60;;;20.40;43.10;;;;;;5071365;28;20443;-57
2022/03/24 10:32:56;;;;;;;32.77;31.40;;;20.40;43.00;;;;;;5071183;28;20470;-59
2022/03/24 10:35:24;;;;;;;33.60;32.30;;;20.50;42.90;;;;;;5071216;28;20443;-60
2022/03/24 10:37:52;;;;;;;32.53;31.23;;;20.50;42.80;;;;;;5071052;28;20529;-58
2022/03/24 10:40:19;;;;;;;30.37;29.07;;;20.60;42.80;;;;;;5071246;28;20439;-60
2022/03/24 10:42:46;;;;;;;30.13;28.93;;;20.60;42.60;;;;;;5071226;28;21038;-58
2022/03/24 10:45:18;;;;;;;33.50;32.10;;;20.70;42.50;;;;;;5071206;28;20454;-62
2022/03/24 10:47:56;;;;;;;31.93;30.40;;;20.80;42.50;;;;;;5071007;28;20899;-58
2022/03/24 10:50:30;;;;;;;30.70;29.27;;;20.80;42.30;;;;;;5071114;28;20467;-62
2022/03/24 10:53:02;;;;;;;28.70;27.40;;;20.90;42.20;;;;;;5071173;28;20836;-57
2022/03/24 10:55:39;;;;;;;28.60;27.30;;;20.90;42.00;;;;;;5071067;28;20809;-58
2022/03/24 10:58:09;;;;;;;31.87;30.17;;;21.00;41.90;;;;;;5074144;28;21007;-59
2022/03/24 11:00:38;;;;;;;28.70;27.30;;;21.10;41.80;;;;;;5074728;28;20447;-58
2022/03/24 11:03:05;;;;;;;29.93;28.63;;;21.10;41.70;;;;;;5074690;28;20471;-61
2022/03/24 11:05:34;;;;;;;32.23;30.60;;;21.20;41.60;;;;;;5074672;28;20446;-58
2022/03/24 11:08:00;;;;;;;32.53;30.73;;;21.30;41.40;;;;;;5074539;28;20446;-59
2022/03/24 11:10:31;;;;;;;29.43;28.03;;;21.40;41.20;;;;;;5074507;28;20834;-58
2022/03/24 11:13:00;;;;;;;28.00;26.70;;;21.40;41.10;;;;;;5074614;28;20517;-59
2022/03/24 11:15:29;;;;;;;29.23;27.83;;;21.50;41.00;;;;;;5074593;28;20439;-56
2022/03/24 11:17:56;;;;;;;27.70;26.50;;;21.60;41.00;;;;;;5074312;28;20450;-55
2022/03/24 11:20:38;;;;;;;29.70;28.30;;;21.70;40.90;;;;;;5074476;28;20816;-58
2022/03/24 11:23:13;;;;;;;27.93;26.63;;;21.70;40.70;;;;;;5074505;28;20463;-55
2022/03/24 11:25:40;;;;;;;29.60;28.10;;;21.80;40.60;;;;;;5074426;28;20476;-59
2022/03/24 11:28:09;;;;;;;27.83;26.63;;;21.90;40.50;;;;;;5074172;28;20454;-59
2022/03/24 11:30:38;;;;;;;27.53;26.33;;;22.00;40.40;;;;;;5074388;28;20481;-55
2022/03/24 11:33:05;;;;;;;29.30;27.90;;;22.20;40.40;;;;;;5074104;28;20550;-57
2022/03/24 11:35:35;;;;;;;30.53;29.13;;;22.30;40.10;;;;;;5074148;28;20921;-57
2022/03/24 11:38:05;;;;;;;30.00;28.50;;;22.40;39.90;;;;;;5074021;28;20446;-59
2022/03/24 11:40:33;;;;;;;30.13;28.77;;;22.60;39.60;;;;;;5074191;28;20444;-58
2022/03/24 11:43:05;;;;;;;28.07;26.77;;;23.00;39.40;;;;;;5074037;28;20494;-61
2022/03/24 11:45:36;;;;;;;29.33;28.03;;;23.90;39.00;;;;;;5074043;28;20439;-57
2022/03/24 11:48:05;;;;;;;31.13;29.63;;;25.40;37.70;;;;;;5073766;28;20475;-59
2022/03/24 11:50:38;;;;;;;30.53;28.97;;;26.60;35.90;;;;;;5073940;28;20448;-58
2022/03/24 11:53:39;;;;;;;30.70;29.30;;;27.70;34.00;;;;;;5073729;28;20479;-59
2022/03/24 11:56:17;;;;;;;31.23;29.73;;;28.80;32.90;;;;;;5073870;28;20435;-57
2022/03/24 11:59:18;;;;;;;29.80;28.47;;;29.60;30.70;;;;;;5073552;28;20496;-60
2022/03/24 12:01:45;;;;;;;30.63;29.23;;;30.40;29.90;;;;;;5070059;28;20745;-60
2022/03/24 12:04:14;;;;;;;31.70;30.20;;;31.00;29.10;;;;;;5073530;28;20451;-54
2022/03/24 12:06:55;;;;;;;30.30;28.90;;;31.50;28.60;;;;;;5073620;28;20479;-59
2022/03/24 12:09:32;;;;;;;29.77;28.47;;;32.00;28.00;;;;;;5072599;28;20807;-57
2022/03/24 12:12:09;;;;;;;30.13;28.73;;;32.40;27.70;;;;;;5073561;28;20975;-57
2022/03/24 12:14:39;;;;;;;30.90;29.50;;;32.70;27.30;;;;;;5073552;28;20457;-58
2022/03/24 12:17:15;;;;;;;31.03;29.57;;;33.10;27.00;;;;;;5073395;28;20439;-56
2022/03/24 12:19:47;;;;;;;30.60;29.20;;;33.40;26.70;;;;;;5073480;28;20443;-56
2022/03/24 12:22:39;;;;;;;30.20;28.80;;;33.70;26.50;;;;;;5073385;28;20528;-55
2022/03/24 12:25:35;;;;;;;29.00;27.70;;;33.90;26.20;;;;;;5073703;28;20442;-59
2022/03/24 12:28:08;;;;;;;29.23;27.93;;;34.20;26.00;;;;;;5073133;28;20479;-60
2022/03/24 12:30:48;;;;;;;29.60;28.30;;;34.40;25.80;;;;;;5073247;28;20454;-59
2022/03/24 12:33:16;;;;;;;29.90;28.60;;;34.60;25.70;;;;;;5073176;28;20462;-59
2022/03/24 12:35:46;;;;;;;29.27;27.97;;;34.90;25.90;;;;;;5073042;28;20447;-54